Time;durP1;ratioP1;P1;durP2;ratioP2;P2;SDS_P1;SDS_P2;PMS_P1;PMS_P2;Temp;Humidity;BMP_temperature;BMP_pressure;BME280_temperature;BME280_humidity;BME280_pressure;Samples;Min_cycle;Max_cycle;Signal;HPM_P1;HPM_P2
2022/05/31 00:00:32;;;;;;;5.50;4.55;;;;;;;23.98;53.24;100564.73;1797613;79;21542;-82
2022/05/31 00:02:59;;;;;;;4.60;3.75;;;;;;;23.97;53.24;100561.73;1775576;79;21061;-82
2022/05/31 00:05:25;;;;;;;5.35;4.37;;;;;;;23.98;53.24;100560.56;1797950;79;21021;-82
2022/05/31 00:07:52;;;;;;;5.10;4.25;;;;;;;23.97;53.23;100563.13;1797903;79;21012;-82
2022/05/31 00:10:18;;;;;;;5.35;4.47;;;;;;;23.98;53.24;100566.12;1798172;79;21032;-82
2022/05/31 00:12:45;;;;;;;6.12;4.60;;;;;;;23.97;53.23;100565.91;1798177;79;21033;-82
2022/05/31 00:15:14;;;;;;;4.25;3.85;;;;;;;23.98;53.23;100566.12;1797874;79;20986;-82
2022/05/31 00:17:41;;;;;;;4.37;3.98;;;;;;;23.97;53.24;100568.11;1798054;79;21020;-82
2022/05/31 00:20:11;;;;;;;5.17;3.90;;;;;;;23.97;53.23;100563.13;1798391;79;21030;-82
2022/05/31 00:22:37;;;;;;;4.62;4.05;;;;;;;23.97;53.23;100567.30;1797793;79;21045;-82
2022/05/31 00:25:05;;;;;;;4.35;3.85;;;;;;;23.97;53.23;100567.30;1798128;79;21104;-82
2022/05/31 00:27:32;;;;;;;4.30;3.90;;;;;;;23.96;53.23;100576.20;1798111;79;21049;-81
2022/05/31 00:29:58;;;;;;;5.00;4.05;;;;;;;23.96;53.24;100567.05;1797675;79;21049;-81
2022/05/31 00:32:33;;;;;;;5.15;4.33;;;;;;;23.96;53.23;100572.04;1798023;79;21029;-81
2022/05/31 00:35:06;;;;;;;4.33;3.92;;;;;;;23.97;53.24;100565.91;1775343;79;21457;-82
2022/05/31 00:37:34;;;;;;;4.97;4.12;;;;;;;23.96;53.24;100561.50;1797742;79;21590;-82
2022/05/31 00:40:00;;;;;;;5.25;3.90;;;;;;;23.96;53.24;100565.67;1798228;79;21232;-82
2022/05/31 00:42:26;;;;;;;4.62;4.03;;;;;;;23.95;53.23;100564.04;1798075;79;20894;-82
2022/05/31 00:44:52;;;;;;;4.75;3.92;;;;;;;23.95;53.23;100559.30;1797792;79;21049;-82
2022/05/31 00:47:31;;;;;;;5.78;3.95;;;;;;;23.96;53.25;100562.89;1802424;79;21001;-81
2022/05/31 00:50:11;;;;;;;5.00;4.47;;;;;;;23.95;53.21;100566.81;1811938;79;21036;-82
2022/05/31 00:52:46;;;;;;;5.55;3.90;;;;;;;23.95;53.21;100565.42;1812179;79;21310;-82
2022/05/31 00:55:23;;;;;;;4.45;4.05;;;;;;;23.95;53.21;100571.80;1810769;78;21503;-82
2022/05/31 00:58:01;;;;;;;7.58;4.55;;;;;;;23.94;53.23;100567.39;1812078;79;21095;-82
2022/05/31 01:00:33;;;;;;;5.62;3.80;;;;;;;23.94;53.23;100572.95;1810910;78;20993;-82
2022/05/31 01:02:59;;;;;;;6.33;4.40;;;;;;;23.94;53.21;100581.28;1814035;78;20965;-82
2022/05/31 01:05:26;;;;;;;5.42;3.90;;;;;;;23.93;53.22;100580.27;1814242;78;21146;-82
2022/05/31 01:07:53;;;;;;;5.47;4.03;;;;;;;23.94;53.23;100578.50;1813734;78;21447;-83
2022/05/31 01:10:19;;;;;;;5.08;4.12;;;;;;;23.94;53.22;100579.08;1814262;79;21055;-82
2022/05/31 01:12:46;;;;;;;4.85;4.20;;;;;;;23.92;53.22;100580.84;1814242;78;21106;-83
2022/05/31 01:15:14;;;;;;;5.10;4.60;;;;;;;23.94;53.22;100581.86;1813992;78;21496;-82
2022/05/31 01:17:42;;;;;;;7.42;4.03;;;;;;;23.93;53.22;100585.22;1814173;79;21023;-83
2022/05/31 01:20:14;;;;;;;5.67;4.33;;;;;;;23.93;53.22;100582.44;1813897;79;21716;-82
2022/05/31 01:22:54;;;;;;;4.78;4.30;;;;;;;23.93;53.24;100584.43;1813924;79;21408;-82
2022/05/31 01:25:31;;;;;;;4.60;3.85;;;;;;;23.94;53.24;100591.58;1814256;79;21036;-82
2022/05/31 01:28:17;;;;;;;4.53;3.80;;;;;;;23.93;53.22;100583.04;1813767;79;20981;-82
2022/05/31 01:30:58;;;;;;;5.85;4.03;;;;;;;23.92;53.22;100585.00;1814220;79;21921;-82
2022/05/31 01:33:30;;;;;;;;;;;;;;;23.92;53.21;100587.78;1815840;78;21593;-82
2022/05/31 01:36:19;;;;;;;4.53;3.98;;;;;;;23.92;53.21;100593.91;1814168;79;20360;-82
2022/05/31 01:39:06;;;;;;;5.97;4.33;;;;;;;23.90;53.21;100590.08;1813926;78;21084;-82
2022/05/31 01:41:47;;;;;;;4.92;4.05;;;;;;;23.90;53.21;100600.38;1812763;78;21310;-82
2022/05/31 01:44:15;;;;;;;4.58;3.60;;;;;;;23.89;53.21;100600.95;1813206;78;21172;-82
2022/05/31 01:46:41;;;;;;;6.28;4.08;;;;;;;23.89;53.21;100600.17;1814420;79;21032;-82
2022/05/31 01:49:10;;;;;;;4.53;4.12;;;;;;;23.89;53.23;100602.95;1813847;79;22062;-82
2022/05/31 01:51:36;;;;;;;4.85;4.10;;;;;;;23.89;53.23;100596.00;1813794;79;21099;-82
2022/05/31 01:54:03;;;;;;;5.22;4.15;;;;;;;23.89;53.24;100596.78;1814160;79;21519;-82
2022/05/31 01:56:29;;;;;;;5.12;4.00;;;;;;;23.89;53.24;100597.39;1814140;79;21099;-82
2022/05/31 01:58:55;;;;;;;5.37;3.90;;;;;;;23.89;53.23;100603.73;1791001;79;21523;-82
2022/05/31 02:01:21;;;;;;;4.08;3.65;;;;;;;23.90;53.24;100610.92;1814259;79;21096;-82
2022/05/31 02:03:48;;;;;;;4.70;4.30;;;;;;;23.91;53.22;100610.34;1791490;79;21673;-82
2022/05/31 02:06:31;;;;;;;4.33;3.85;;;;;;;23.90;53.22;100613.70;1813891;78;21084;-82
2022/05/31 02:08:57;;;;;;;5.55;4.28;;;;;;;23.91;53.22;100618.11;1814226;79;22191;-82
2022/05/31 02:11:24;;;;;;;5.15;3.70;;;;;;;23.91;53.21;100615.91;1813668;79;20986;-82
2022/05/31 02:13:50;;;;;;;4.50;3.83;;;;;;;23.90;53.21;100608.14;1814393;78;21013;-82
2022/05/31 02:16:16;;;;;;;4.95;3.75;;;;;;;23.91;53.20;100611.73;1814209;78;20984;-82
2022/05/31 02:21:36;;;;;;;6.28;4.40;;;;;;;23.91;53.19;100610.34;1814055;79;21228;-82
2022/05/31 02:24:11;;;;;;;4.80;4.20;;;;;;;23.91;53.17;100617.30;1791833;79;21084;-82
2022/05/31 02:26:41;;;;;;;4.58;4.08;;;;;;;23.91;53.16;100620.89;1813229;79;21075;-82
2022/05/31 02:29:06;;;;;;;4.47;3.87;;;;;;;23.91;53.17;100627.83;1813924;78;21487;-82
2022/05/31 02:31:33;;;;;;;4.20;3.80;;;;;;;23.91;53.17;100626.44;1814394;79;21001;-82
2022/05/31 02:34:00;;;;;;;4.95;3.80;;;;;;;23.91;53.15;100628.41;1814544;79;21650;-82
2022/05/31 02:36:27;;;;;;;4.20;3.70;;;;;;;23.91;53.17;100630.61;1814075;79;20989;-82
2022/05/31 02:38:53;;;;;;;6.75;4.05;;;;;;;23.91;53.17;100636.74;1814524;79;21446;-82
2022/05/31 02:41:20;;;;;;;4.17;3.77;;;;;;;23.91;53.16;100632.58;1814415;78;21024;-82
2022/05/31 02:43:46;;;;;;;5.08;4.00;;;;;;;23.91;53.16;100629.22;1814130;78;20985;-82
2022/05/31 02:46:13;;;;;;;4.30;3.90;;;;;;;23.92;53.16;100634.20;1814241;79;22027;-82
2022/05/31 02:48:39;;;;;;;5.03;4.35;;;;;;;23.91;53.15;100638.13;1814152;78;20997;-82
2022/05/31 02:51:05;;;;;;;6.60;4.25;;;;;;;23.91;53.16;100638.13;1813856;79;21384;-82
2022/05/31 02:53:32;;;;;;;4.67;4.25;;;;;;;23.92;53.14;100638.38;1814201;78;20993;-82
2022/05/31 02:56:04;;;;;;;4.58;3.75;;;;;;;23.92;53.13;100639.77;1814058;79;21508;-82
2022/05/31 02:58:30;;;;;;;4.47;4.05;;;;;;;23.91;53.13;100641.72;1813919;79;21843;-81
2022/05/31 03:00:56;;;;;;;4.60;4.03;;;;;;;23.92;53.13;100649.48;1814436;79;21044;-81
2022/05/31 03:03:23;;;;;;;5.03;4.40;;;;;;;23.92;53.12;100648.09;1813970;78;20974;-81
2022/05/31 03:05:51;;;;;;;4.37;3.83;;;;;;;23.92;53.12;100653.66;1814080;78;21094;-81
2022/05/31 03:08:23;;;;;;;5.65;4.25;;;;;;;23.91;53.10;100651.45;1814018;79;21052;-82
2022/05/31 03:10:52;;;;;;;6.17;4.25;;;;;;;23.91;53.09;100662.56;1814304;79;21273;-82
2022/05/31 03:13:22;;;;;;;5.50;4.10;;;;;;;23.92;53.11;100661.42;1813932;79;21100;-82
2022/05/31 03:15:49;;;;;;;4.80;4.28;;;;;;;23.92;53.08;100661.99;1814493;78;21024;-82
2022/05/31 03:18:19;;;;;;;4.55;3.80;;;;;;;23.91;53.07;100666.73;1814405;78;21590;-82
2022/05/31 03:20:51;;;;;;;4.15;3.65;;;;;;;23.92;53.08;100666.16;1814169;79;21040;-82
2022/05/31 03:23:25;;;;;;;5.12;4.30;;;;;;;23.92;53.07;100668.94;1814370;78;21051;-82
2022/05/31 03:25:51;;;;;;;4.60;3.87;;;;;;;23.91;53.04;100670.09;1813793;79;20997;-82
2022/05/31 03:28:17;;;;;;;4.78;4.20;;;;;;;23.92;53.06;100675.88;1814436;78;21017;-82
2022/05/31 03:30:44;;;;;;;6.45;4.00;;;;;;;23.91;53.03;100674.25;1814219;78;21874;-82
2022/05/31 03:33:10;;;;;;;4.95;3.80;;;;;;;23.92;53.03;100675.88;1814013;79;21005;-82
2022/05/31 03:35:37;;;;;;;4.95;4.00;;;;;;;23.91;53.04;100677.84;1814277;78;21652;-82
2022/05/31 03:38:04;;;;;;;4.72;4.22;;;;;;;23.91;53.03;100677.03;1814148;79;21009;-82
2022/05/31 03:43:15;;;;;;;4.37;3.72;;;;;;;23.92;53.01;100680.05;1814259;79;21010;-82
2022/05/31 03:45:42;;;;;;;4.35;3.72;;;;;;;23.92;52.99;100681.44;1813994;79;21475;-82
2022/05/31 03:48:09;;;;;;;5.53;4.30;;;;;;;23.91;53.00;100679.81;1812750;79;21127;-82
2022/05/31 03:50:38;;;;;;;4.72;3.83;;;;;;;23.91;53.00;100686.19;1801733;79;21547;-82
2022/05/31 03:53:05;;;;;;;6.20;3.75;;;;;;;23.91;53.00;100691.73;1797742;79;21010;-82
2022/05/31 03:55:31;;;;;;;5.05;3.87;;;;;;;23.91;52.97;100686.19;1798017;79;21061;-82
2022/05/31 03:57:57;;;;;;;5.95;4.10;;;;;;;23.91;52.99;100694.52;1798121;79;21550;-82
2022/05/31 04:00:24;;;;;;;4.42;3.77;;;;;;;23.91;53.00;100700.08;1797744;79;21559;-82
2022/05/31 04:02:50;;;;;;;5.28;4.50;;;;;;;23.91;53.00;100702.86;1797668;79;20998;-82
2022/05/31 04:05:16;;;;;;;4.50;4.10;;;;;;;23.92;53.00;100703.67;1797990;79;21501;-82
2022/05/31 04:07:43;;;;;;;5.75;4.33;;;;;;;23.92;53.02;100698.92;1797607;79;21088;-81
2022/05/31 04:10:10;;;;;;;4.58;4.03;;;;;;;23.91;53.06;100702.04;1798126;79;21536;-82
2022/05/31 04:12:37;;;;;;;4.70;4.28;;;;;;;23.90;53.08;100706.78;1798147;79;21133;-83
2022/05/31 04:15:04;;;;;;;5.97;4.70;;;;;;;23.90;53.10;100706.78;1797493;79;21033;-83
2022/05/31 04:17:31;;;;;;;5.20;4.70;;;;;;;23.90;53.13;100710.95;1820902;78;21017;-82
2022/05/31 04:19:57;;;;;;;6.60;5.08;;;;;;;23.89;53.16;100708.53;1809943;78;21061;-82
2022/05/31 04:22:24;;;;;;;5.22;4.60;;;;;;;23.89;53.18;100705.75;1809177;79;20998;-82
2022/05/31 04:24:54;;;;;;;7.17;5.58;;;;;;;23.88;53.24;100704.13;1743138;82;21137;-85
2022/05/31 04:27:18;;;;;;;7.25;5.70;;;;;;;23.88;53.31;100705.52;1757817;81;21595;-85
2022/05/31 04:29:45;;;;;;;10.78;5.67;;;;;;;23.86;53.39;100709.20;1743535;80;21040;-80
2022/05/31 04:32:17;;;;;;;9.75;5.72;;;;;;;23.84;53.51;100713.72;1753174;81;21034;-83
2022/05/31 04:34:43;;;;;;;10.78;6.20;;;;;;;23.83;53.58;100713.48;1751818;80;21050;-84
2022/05/31 04:37:10;;;;;;;11.33;6.95;;;;;;;23.82;53.69;100713.23;1743664;81;21726;-86
2022/05/31 04:39:36;;;;;;;11.20;6.55;;;;;;;23.80;53.81;100714.17;1748803;80;21038;-82
2022/05/31 04:42:03;;;;;;;12.15;7.53;;;;;;;23.81;53.93;100715.77;1749950;80;21104;-85
2022/05/31 04:44:29;;;;;;;14.70;6.90;;;;;;;23.80;54.05;100712.78;1765936;79;21571;-84
2022/05/31 04:46:55;;;;;;;13.53;7.47;;;;;;;23.80;54.17;100711.97;1778037;77;21048;-86
2022/05/31 04:49:22;;;;;;;9.43;6.90;;;;;;;23.78;54.32;100710.91;1819564;77;21113;-84
2022/05/31 04:51:48;;;;;;;22.00;7.20;;;;;;;23.78;54.40;100710.09;1850390;76;20981;-85
2022/05/31 04:54:18;;;;;;;10.85;7.22;;;;;;;23.78;54.49;100715.08;1823001;77;21096;-85
2022/05/31 04:56:44;;;;;;;14.75;7.50;;;;;;;23.80;54.54;100718.34;1838126;76;21260;-85
2022/05/31 04:59:10;;;;;;;12.90;7.37;;;;;;;23.79;54.59;100713.11;1844462;76;21073;-86
2022/05/31 05:01:37;;;;;;;12.60;6.75;;;;;;;23.79;54.62;100718.67;1828602;77;21481;-85
2022/05/31 05:04:04;;;;;;;12.68;6.50;;;;;;;23.79;54.71;100710.34;1828037;77;21042;-81
2022/05/31 05:06:31;;;;;;;15.53;7.15;;;;;;;23.80;54.78;100718.34;1831782;77;21583;-77
2022/05/31 05:08:57;;;;;;;15.93;6.70;;;;;;;23.80;54.82;100716.95;1842096;76;21063;-78
2022/05/31 05:11:24;;;;;;;18.87;7.70;;;;;;;23.80;54.83;100719.73;1827177;76;21108;-78
2022/05/31 05:13:50;;;;;;;18.27;6.85;;;;;;;23.80;54.83;100722.51;1846497;77;21394;-78
2022/05/31 05:16:17;;;;;;;16.70;7.37;;;;;;;23.81;54.84;100733.83;1839545;77;21019;-78
2022/05/31 05:18:44;;;;;;;15.23;6.92;;;;;;;23.82;54.84;100733.27;1847311;75;21004;-79
2022/05/31 05:21:13;;;;;;;14.00;6.70;;;;;;;23.84;54.84;100733.74;1815628;77;21028;-80
2022/05/31 05:23:39;;;;;;;14.75;7.12;;;;;;;23.84;54.86;100734.56;1829224;77;21041;-79
2022/05/31 05:26:06;;;;;;;11.80;6.80;;;;;;;23.86;54.85;100739.75;1765943;80;21120;-82
2022/05/31 05:31:41;;;;;;;11.75;6.62;;;;;;;23.86;54.80;100746.13;1784669;79;21596;-80
2022/05/31 05:34:08;;;;;;;;;;;;;;;23.86;54.75;100753.08;1772311;79;21012;-78
2022/05/31 05:36:34;;;;;;;10.93;6.87;;;;;;;23.87;54.73;100749.73;1795502;79;20177;-80
2022/05/31 05:39:01;;;;;;;11.53;7.45;;;;;;;23.86;54.71;100750.88;1798191;79;21027;-80
2022/05/31 05:41:30;;;;;;;12.93;7.25;;;;;;;23.85;54.75;100745.89;1798291;78;21074;-81
2022/05/31 05:43:56;;;;;;;15.18;7.20;;;;;;;23.85;54.88;100745.89;1790662;79;21102;-81
2022/05/31 05:46:26;;;;;;;11.60;6.70;;;;;;;23.85;54.92;100748.66;1798073;79;21019;-81
2022/05/31 05:48:53;;;;;;;12.80;7.15;;;;;;;23.85;54.98;100750.05;1799421;78;21070;-79
2022/05/31 05:51:23;;;;;;;16.27;7.60;;;;;;;23.86;55.07;100751.69;1801863;79;21148;-80
2022/05/31 05:53:50;;;;;;;16.37;8.20;;;;;;;23.87;55.22;100749.73;1794202;79;21587;-81
2022/05/31 05:56:17;;;;;;;18.67;7.97;;;;;;;23.88;55.38;100748.00;1774015;78;21453;-86
2022/05/31 05:58:43;;;;;;;14.20;7.85;;;;;;;23.89;55.59;100752.98;1797718;77;20947;-85
2022/05/31 06:01:42;;;;;;;16.57;7.67;;;;;;;23.89;55.66;100754.38;1785042;79;21032;-82
2022/05/31 06:04:15;;;;;;;26.10;8.08;;;;;;;23.89;55.78;100753.77;1780747;78;22168;-82
2022/05/31 06:06:42;;;;;;;24.12;8.03;;;;;;;23.91;55.72;100756.22;1785409;78;21072;-78
2022/05/31 06:09:18;;;;;;;21.85;7.58;;;;;;;23.92;55.75;100759.24;1808832;78;21080;-81
2022/05/31 06:11:57;;;;;;;15.83;7.78;;;;;;;23.90;55.76;100756.80;1792391;78;21575;-82
2022/05/31 06:14:52;;;;;;;13.00;7.10;;;;;;;23.90;55.90;100751.23;1804774;77;21061;-84
2022/05/31 06:17:23;;;;;;;12.90;7.28;;;;;;;23.89;55.78;100750.21;1797089;78;21147;-78
2022/05/31 06:19:49;;;;;;;14.25;6.75;;;;;;;23.87;55.74;100754.70;1792265;78;21022;-85
2022/05/31 06:22:16;;;;;;;9.15;6.25;;;;;;;23.88;55.75;100754.14;1789093;77;21060;-80
2022/05/31 06:24:46;;;;;;;13.40;6.90;;;;;;;23.86;55.70;100754.47;1766924;79;134133;-89
2022/05/31 06:27:12;;;;;;;8.90;6.28;;;;;;;23.87;55.71;100749.73;1744284;79;21049;-90
2022/05/31 06:29:38;;;;;;;11.57;7.60;;;;;;;23.87;55.63;100758.87;1730429;82;21703;-87
2022/05/31 06:32:14;;;;;;;11.30;6.83;;;;;;;23.91;55.64;100757.61;1766868;80;21539;-88
2022/05/31 06:34:39;;;;;;;12.53;7.95;;;;;;;23.91;55.62;100757.04;1772334;80;21064;-92
2022/05/31 06:37:10;;;;;;;15.23;8.95;;;;;;;23.91;55.56;100758.43;1776950;79;21016;-89
2022/05/31 06:39:38;;;;;;;17.65;9.85;;;;;;;23.93;55.50;100756.70;1765463;78;21107;-91
2022/05/31 06:42:05;;;;;;;14.35;10.25;;;;;;;23.95;55.53;100748.83;1773966;80;21116;-91
2022/05/31 06:44:35;;;;;;;18.25;10.10;;;;;;;23.96;55.53;100750.45;1777383;78;21080;-92
2022/05/31 06:47:01;;;;;;;22.32;13.90;;;;;;;23.98;55.55;100748.14;1823932;77;21051;-90
2022/05/31 06:49:36;;;;;;;16.87;11.12;;;;;;;23.98;55.60;100744.78;1813786;78;21060;-88
2022/05/31 06:57:39;;;;;;;29.70;12.65;;;;;;;24.03;55.82;100743.19;1804493;77;20983;-86
2022/05/31 07:00:07;;;;;;;28.70;12.25;;;;;;;24.05;55.88;100742.86;1776585;79;21119;-86
2022/05/31 07:02:34;;;;;;;22.90;10.25;;;;;;;24.06;56.02;100738.93;1801962;78;21076;-93
2022/05/31 07:05:01;;;;;;;15.78;8.25;;;;;;;24.06;55.97;100740.31;1809023;77;21551;-89
2022/05/31 07:07:27;;;;;;;16.30;8.95;;;;;;;24.07;55.88;100737.17;1801044;78;21120;-87
2022/05/31 07:09:53;;;;;;;16.97;9.23;;;;;;;24.07;55.81;100744.12;1797521;78;21017;-86
2022/05/31 07:12:20;;;;;;;17.50;10.75;;;;;;;24.09;55.78;100746.57;1809387;78;21529;-86
2022/05/31 07:14:46;;;;;;;26.25;10.93;;;;;;;24.10;55.80;100748.98;1795594;77;21048;-89
2022/05/31 07:17:13;;;;;;;23.57;10.05;;;;;;;24.11;55.83;100745.06;1801819;78;21100;-91
2022/05/31 07:19:39;;;;;;;13.62;8.88;;;;;;;24.13;55.80;100752.50;1804660;79;21202;-88
2022/05/31 07:22:06;;;;;;;14.87;10.70;;;;;;;24.13;55.67;100752.50;1771593;79;21338;-93
2022/05/31 07:24:34;;;;;;;13.28;10.20;;;;;;;24.14;55.58;100745.76;1801057;78;21017;-92
2022/05/31 07:27:00;;;;;;;19.10;12.25;;;;;;;24.15;55.45;100749.38;1765121;79;20957;-87
2022/05/31 07:29:28;;;;;;;17.07;13.32;;;;;;;24.17;55.41;100742.10;1779035;79;21301;-87
2022/05/31 07:31:54;;;;;;;23.00;13.95;;;;;;;24.17;55.39;100741.53;1766474;79;21199;-87
2022/05/31 07:34:23;;;;;;;23.98;16.17;;;;;;;24.19;55.38;100748.93;1780351;79;21026;-87
2022/05/31 07:36:49;;;;;;;23.85;15.32;;;;;;;24.19;55.39;100742.59;1803102;77;21599;-92
2022/05/31 07:39:17;;;;;;;26.27;16.60;;;;;;;24.20;55.41;100745.58;1787775;77;21083;-94
2022/05/31 07:41:50;;;;;;;27.45;18.48;;;;;;;24.20;55.42;100742.22;1800492;77;21124;-89
2022/05/31 07:44:18;;;;;;;23.95;16.27;;;;;;;24.21;55.46;100743.03;1793285;78;21628;-90
2022/05/31 07:46:44;;;;;;;25.92;15.78;;;;;;;24.22;55.40;100743.28;1794229;78;21045;-90
2022/05/31 07:49:13;;;;;;;31.80;15.08;;;;;;;24.21;55.49;100742.47;1801803;78;21416;-86
2022/05/31 07:51:40;;;;;;;35.95;15.68;;;;;;;24.23;55.58;100746.30;1777455;79;21131;-88
2022/05/31 07:54:07;;;;;;;27.02;12.05;;;;;;;24.25;55.68;100734.24;1775268;79;21408;-87
2022/05/31 07:56:34;;;;;;;22.95;13.93;;;;;;;24.25;55.83;100743.40;1783545;78;21086;-92
2022/05/31 07:59:00;;;;;;;31.10;12.95;;;;;;;24.26;55.89;100735.30;1784113;78;21555;-85
2022/05/31 08:01:27;;;;;;;25.23;12.30;;;;;;;24.27;56.02;100748.63;1783788;78;21052;-88
2022/05/31 08:03:53;;;;;;;24.47;11.20;;;;;;;24.29;56.10;100749.89;1798808;77;21136;-87
2022/05/31 08:06:23;;;;;;;35.28;12.88;;;;;;;24.31;56.14;100751.77;1798287;78;21066;-90
2022/05/31 08:08:50;;;;;;;27.63;14.67;;;;;;;24.32;56.25;100743.64;1801270;77;21473;-87
2022/05/31 08:11:20;;;;;;;26.52;12.65;;;;;;;24.32;56.27;100747.81;1807592;79;21534;-87
2022/05/31 08:13:46;;;;;;;19.92;13.13;;;;;;;24.34;56.17;100746.90;1751568;79;21073;-89
2022/05/31 08:16:14;;;;;;;22.85;13.03;;;;;;;24.34;56.12;100748.87;1790757;79;21113;-80
2022/05/31 08:18:42;;;;;;;21.33;13.58;;;;;;;24.36;56.07;100750.13;1801292;77;21593;-87
2022/05/31 08:21:13;;;;;;;35.60;15.03;;;;;;;24.35;56.02;100751.31;1768984;78;21100;-89
2022/05/31 08:23:39;;;;;;;24.82;13.72;;;;;;;24.36;55.93;100746.53;1771800;79;21125;-89
2022/05/31 08:26:14;;;;;;;25.40;14.87;;;;;;;24.36;55.88;100747.35;1778809;79;21064;-90
2022/05/31 08:28:41;;;;;;;40.58;18.65;;;;;;;24.37;55.86;100746.20;1766440;79;21539;-89
2022/05/31 08:31:10;;;;;;;30.00;17.77;;;;;;;24.36;55.87;100744.58;1824275;77;21043;-89
2022/05/31 08:33:38;;;;;;;30.97;18.05;;;;;;;24.37;55.87;100745.39;1810921;76;21103;-88
2022/05/31 08:36:05;;;;;;;28.15;17.32;;;;;;;24.38;55.94;100745.63;1822770;76;21023;-87
2022/05/31 08:38:35;;;;;;;27.98;17.37;;;;;;;24.38;55.99;100735.89;1804449;77;21099;-90
2022/05/31 08:41:20;;;;;;;29.18;18.17;;;;;;;24.38;56.06;100735.32;1830354;76;21653;-93
2022/05/31 08:43:57;;;;;;;24.92;12.45;;;;;;;24.38;56.13;100739.49;1828524;76;21476;-88
2022/05/31 08:47:36;;;;;;;31.50;14.13;;;;;;;24.41;56.34;100737.98;1824029;77;21268;-90
2022/05/31 08:53:26;;;;;;;29.92;11.80;;;;;;;24.51;56.87;100738.94;1839931;76;21059;-93
2022/05/31 08:59:21;;;;;;;29.48;12.13;;;;;;;24.57;57.10;100741.13;1762088;79;21150;-87
2022/05/31 09:01:52;;;;;;;30.17;11.68;;;;;;;24.62;57.15;100743.45;1828331;75;21588;-90
2022/05/31 09:04:34;;;;;;;27.55;12.85;;;;;;;24.64;57.03;100735.58;1821127;76;21084;-86
2022/05/31 09:07:13;;;;;;;24.52;12.30;;;;;;;24.67;57.05;100737.66;1825618;75;21144;-90
2022/05/31 09:10:17;;;;;;;;;;;;;;;;;;;;;
2022/05/31 09:12:52;;;;;;;25.55;12.88;;;;;;;24.69;57.19;100747.88;1831483;76;21084;-88
2022/05/31 09:19:17;;;;;;;;;;;;;;;;;;;;;
2022/05/31 09:22:35;;;;;;;;;;;;;;;;;;;;;
2022/05/31 09:25:05;;;;;;;18.37;11.97;;;;;;;24.69;56.93;100746.48;1756097;79;21146;-89
2022/05/31 09:27:48;;;;;;;15.78;11.18;;;;;;;24.66;56.66;100745.19;1779696;78;21535;-93
2022/05/31 09:30:40;;;;;;;18.00;11.60;;;;;;;24.66;56.47;100746.59;1699110;82;21661;-79
2022/05/31 09:33:35;;;;;;;20.80;12.50;;;;;;;24.63;56.47;100741.72;1696704;81;21059;-78
2022/05/31 09:36:12;;;;;;;19.67;12.13;;;;;;;24.62;56.40;100742.06;1618103;84;21162;-78
2022/05/31 09:39:03;;;;;;;20.85;12.37;;;;;;;24.60;56.42;100743.00;1619799;86;21105;-77
2022/05/31 09:41:58;;;;;;;20.52;13.03;;;;;;;24.57;56.40;100740.31;1647195;85;21183;-80
2022/05/31 09:44:39;;;;;;;22.45;11.45;;;;;;;24.55;56.40;100728.16;1675546;83;21165;-78
2022/05/31 09:47:17;;;;;;;15.40;11.75;;;;;;;24.54;56.41;100739.05;1658190;84;21160;-78
2022/05/31 09:49:46;;;;;;;19.52;11.95;;;;;;;24.53;56.41;100735.21;1673468;83;21127;-79
2022/05/31 09:52:24;;;;;;;17.57;11.33;;;;;;;24.51;56.41;100741.14;1674878;83;21899;-79
2022/05/31 09:58:12;;;;;;;27.22;12.73;;;;;;;24.55;56.47;100738.47;1732513;81;21116;-79
2022/05/31 10:01:09;;;;;;;19.35;10.78;;;;;;;24.61;56.88;100741.84;1731225;81;21475;-80
2022/05/31 10:03:39;;;;;;;17.85;11.18;;;;;;;24.69;57.09;100736.17;1741996;80;21633;-79
2022/05/31 10:06:22;;;;;;;29.15;11.97;;;;;;;24.79;57.49;100734.30;1685655;83;21031;-79
2022/05/31 10:08:54;;;;;;;19.82;10.32;;;;;;;24.84;57.63;100726.30;1688150;83;21059;-78
2022/05/31 10:11:32;;;;;;;23.02;12.47;;;;;;;24.88;57.54;100732.25;1696742;82;21365;-79
2022/05/31 10:14:00;;;;;;;;;;;;;;;24.90;57.42;100733.31;1692085;83;21470;-79
2022/05/31 10:16:32;;;;;;;19.00;11.45;;;;;;;24.91;57.41;100734.91;1690273;83;20178;-80
2022/05/31 10:19:08;;;;;;;20.68;11.80;;;;;;;24.91;57.23;100734.91;1658917;84;21080;-80
2022/05/31 10:21:40;;;;;;;21.37;11.22;;;;;;;24.89;57.15;100733.88;1686156;83;21067;-79
2022/05/31 10:24:20;;;;;;;20.12;12.23;;;;;;;24.89;57.08;100738.06;1728666;81;21301;-79
2022/05/31 10:27:10;;;;;;;24.63;12.30;;;;;;;24.88;56.92;100730.05;1761698;80;22144;-79
2022/05/31 10:30:00;;;;;;;24.43;10.90;;;;;;;24.86;56.79;100723.45;1767003;79;21088;-78
2022/05/31 10:32:35;;;;;;;22.02;11.93;;;;;;;24.85;56.73;100727.94;1760321;80;21591;-78
2022/05/31 10:35:13;;;;;;;18.62;11.28;;;;;;;24.83;56.69;100722.71;1736564;79;21113;-78
2022/05/31 10:37:57;;;;;;;21.07;12.03;;;;;;;24.81;56.66;100725.05;1770377;79;22493;-77
2022/05/31 10:40:31;;;;;;;17.98;11.75;;;;;;;24.80;56.69;100719.81;1780983;78;21133;-77
2022/05/31 10:43:03;;;;;;;20.85;12.68;;;;;;;24.76;56.73;100718.89;1786714;78;20987;-78
2022/05/31 10:45:31;;;;;;;16.97;11.18;;;;;;;24.75;56.81;100714.48;1786280;78;20859;-78
2022/05/31 10:47:58;;;;;;;18.52;11.43;;;;;;;24.71;56.90;100709.38;1780520;79;21138;-78
2022/05/31 10:50:34;;;;;;;18.12;10.88;;;;;;;24.69;56.85;100708.93;1779722;79;21293;-76
2022/05/31 10:53:35;;;;;;;28.92;13.05;;;;;;;24.67;56.83;100701.50;1733671;81;21097;-80
2022/05/31 10:55:59;;;;;;;27.00;11.68;;;;;;;24.65;56.96;100704.65;1766110;80;21102;-77
2022/05/31 10:58:40;;;;;;;15.32;10.82;;;;;;;24.67;57.10;100693.97;1788164;78;21076;-78
2022/05/31 11:01:33;;;;;;;15.90;11.48;;;;;;;24.69;56.69;100697.80;1789411;79;21177;-77
2022/05/31 11:04:11;;;;;;;24.45;12.33;;;;;;;24.71;56.65;100709.38;1788851;79;21496;-77
2022/05/31 11:07:02;;;;;;;21.52;11.18;;;;;;;24.70;56.76;100699.41;1787452;80;21076;-78
2022/05/31 11:12:45;;;;;;;37.88;11.05;;;;;;;24.68;56.69;100692.00;1777699;80;21087;-77
2022/05/31 11:15:34;;;;;;;17.50;10.95;;;;;;;24.67;56.63;100688.98;1780246;78;21677;-77
2022/05/31 11:18:56;;;;;;;18.75;11.43;;;;;;;24.65;56.58;100689.34;1778108;78;21095;-77
2022/05/31 11:21:46;;;;;;;14.05;10.63;;;;;;;24.65;56.60;100687.95;1788458;78;21084;-78
2022/05/31 11:24:44;;;;;;;15.00;10.18;;;;;;;24.64;56.61;100685.52;1765679;79;21089;-79
2022/05/31 11:27:19;;;;;;;18.73;12.07;;;;;;;24.63;56.57;100682.48;1791446;78;21048;-79
2022/05/31 11:30:06;;;;;;;16.55;10.93;;;;;;;24.61;56.78;100678.69;1790577;78;21055;-79
2022/05/31 11:33:11;;;;;;;16.42;10.90;;;;;;;24.60;56.83;100674.84;1802786;78;21070;-79
2022/05/31 11:36:00;;;;;;;14.55;9.68;;;;;;;24.59;56.71;100678.20;1799727;78;21527;-77
2022/05/31 11:38:35;;;;;;;18.17;10.58;;;;;;;24.57;56.78;100680.51;1768369;78;21031;-77
2022/05/31 11:41:48;;;;;;;14.10;10.50;;;;;;;24.56;56.80;100671.37;1708806;78;21067;-76
2022/05/31 11:44:43;;;;;;;16.32;10.35;;;;;;;24.56;56.78;100663.03;1730130;80;21839;-77
2022/05/31 11:47:46;;;;;;;17.37;10.20;;;;;;;24.57;56.72;100660.46;1767466;79;21187;-77
2022/05/31 11:50:44;;;;;;;12.90;9.63;;;;;;;24.60;56.69;100670.67;1757695;79;21494;-79
2022/05/31 11:53:29;;;;;;;16.85;10.30;;;;;;;24.58;56.66;100655.14;1760014;79;21044;-78
2022/05/31 11:56:09;;;;;;;16.30;9.38;;;;;;;24.62;57.09;100651.65;1737221;80;21163;-78
2022/05/31 11:58:59;;;;;;;14.55;8.95;;;;;;;24.71;57.51;100654.55;1725577;80;21085;-80
2022/05/31 12:01:38;;;;;;;20.30;8.95;;;;;;;24.80;57.60;100655.81;1731663;80;22098;-79
2022/05/31 12:04:13;;;;;;;18.30;8.68;;;;;;;24.86;57.70;100654.47;1751798;80;21048;-78
2022/05/31 12:07:04;;;;;;;17.82;9.08;;;;;;;24.91;57.59;100645.27;1720484;80;21053;-77
2022/05/31 12:09:51;;;;;;;19.05;9.13;;;;;;;24.97;57.45;100649.45;1744089;81;21434;-79
2022/05/31 12:12:30;;;;;;;17.05;9.93;;;;;;;25.01;57.21;100648.16;1731380;80;21124;-78
2022/05/31 12:15:06;;;;;;;14.63;9.10;;;;;;;25.01;56.98;100649.55;1774501;79;21534;-79
2022/05/31 12:17:44;;;;;;;15.28;9.33;;;;;;;25.03;56.78;100644.45;1763422;80;21082;-78